sensor_id;sensor_type;location;lat;lon;timestamp;P1;durP1;ratioP1;P2;durP2;ratioP2
52322;SDS011;38263;52.920;6.238;2022-12-16T00:01:39;47.00;;;26.55;;
52322;SDS011;38263;52.920;6.238;2022-12-16T00:04:05;48.22;;;26.98;;
52322;SDS011;38263;52.920;6.238;2022-12-16T00:06:32;45.28;;;26.85;;
52322;SDS011;38263;52.920;6.238;2022-12-16T00:08:58;41.30;;;24.70;;
52322;SDS011;38263;52.920;6.238;2022-12-16T00:11:24;41.60;;;23.73;;
52322;SDS011;38263;52.920;6.238;2022-12-16T00:13:51;39.70;;;23.52;;
52322;SDS011;38263;52.920;6.238;2022-12-16T00:16:17;43.42;;;25.70;;
52322;SDS011;38263;52.920;6.238;2022-12-16T00:18:45;42.90;;;26.20;;
52322;SDS011;38263;52.920;6.238;2022-12-16T00:21:11;39.45;;;23.35;;
52322;SDS011;38263;52.920;6.238;2022-12-16T00:23:37;42.42;;;24.52;;
52322;SDS011;38263;52.920;6.238;2022-12-16T00:26:05;38.25;;;24.17;;
52322;SDS011;38263;52.920;6.238;2022-12-16T00:28:31;40.10;;;24.15;;
52322;SDS011;38263;52.920;6.238;2022-12-16T00:30:57;38.03;;;22.83;;
52322;SDS011;38263;52.920;6.238;2022-12-16T00:33:24;46.50;;;24.40;;
52322;SDS011;38263;52.920;6.238;2022-12-16T00:35:51;41.03;;;24.00;;
52322;SDS011;38263;52.920;6.238;2022-12-16T00:38:17;40.60;;;23.85;;
52322;SDS011;38263;52.920;6.238;2022-12-16T00:40:43;37.97;;;21.90;;
52322;SDS011;38263;52.920;6.238;2022-12-16T00:43:09;39.67;;;23.75;;
52322;SDS011;38263;52.920;6.238;2022-12-16T00:45:35;40.60;;;22.58;;
52322;SDS011;38263;52.920;6.238;2022-12-16T00:48:01;38.08;;;22.45;;
52322;SDS011;38263;52.920;6.238;2022-12-16T00:50:27;36.30;;;22.83;;
52322;SDS011;38263;52.920;6.238;2022-12-16T00:52:53;36.70;;;22.42;;
52322;SDS011;38263;52.920;6.238;2022-12-16T00:55:19;36.22;;;22.73;;
52322;SDS011;38263;52.920;6.238;2022-12-16T00:57:45;41.47;;;23.08;;
52322;SDS011;38263;52.920;6.238;2022-12-16T01:00:12;33.05;;;21.52;;
52322;SDS011;38263;52.920;6.238;2022-12-16T01:02:39;35.88;;;21.77;;
52322;SDS011;38263;52.920;6.238;2022-12-16T01:05:10;35.88;;;21.00;;
52322;SDS011;38263;52.920;6.238;2022-12-16T01:07:38;34.35;;;21.75;;
52322;SDS011;38263;52.920;6.238;2022-12-16T01:10:07;37.40;;;22.48;;
52322;SDS011;38263;52.920;6.238;2022-12-16T01:12:33;42.53;;;23.95;;
52322;SDS011;38263;52.920;6.238;2022-12-16T01:14:59;38.47;;;22.55;;
52322;SDS011;38263;52.920;6.238;2022-12-16T01:17:26;37.15;;;23.02;;
52322;SDS011;38263;52.920;6.238;2022-12-16T01:19:52;37.08;;;21.67;;
52322;SDS011;38263;52.920;6.238;2022-12-16T01:22:18;35.17;;;21.38;;
52322;SDS011;38263;52.920;6.238;2022-12-16T01:24:44;35.75;;;21.63;;
52322;SDS011;38263;52.920;6.238;2022-12-16T01:27:10;35.92;;;21.58;;
52322;SDS011;38263;52.920;6.238;2022-12-16T01:29:36;38.63;;;22.20;;
52322;SDS011;38263;52.920;6.238;2022-12-16T01:32:03;36.97;;;20.98;;
52322;SDS011;38263;52.920;6.238;2022-12-16T01:34:29;29.48;;;19.15;;
52322;SDS011;38263;52.920;6.238;2022-12-16T01:36:55;34.63;;;20.83;;
52322;SDS011;38263;52.920;6.238;2022-12-16T01:39:21;32.45;;;20.23;;
52322;SDS011;38263;52.920;6.238;2022-12-16T01:41:47;37.13;;;19.90;;
52322;SDS011;38263;52.920;6.238;2022-12-16T01:44:14;35.08;;;19.38;;
52322;SDS011;38263;52.920;6.238;2022-12-16T01:46:42;32.65;;;19.65;;
52322;SDS011;38263;52.920;6.238;2022-12-16T01:52:06;30.40;;;19.30;;
52322;SDS011;38263;52.920;6.238;2022-12-16T01:54:35;29.17;;;17.08;;
52322;SDS011;38263;52.920;6.238;2022-12-16T01:57:06;29.45;;;18.55;;
52322;SDS011;38263;52.920;6.238;2022-12-16T01:59:36;34.85;;;20.13;;
52322;SDS011;38263;52.920;6.238;2022-12-16T02:02:05;33.58;;;18.80;;
52322;SDS011;38263;52.920;6.238;2022-12-16T02:04:31;35.65;;;20.52;;
52322;SDS011;38263;52.920;6.238;2022-12-16T02:06:57;31.13;;;18.77;;
52322;SDS011;38263;52.920;6.238;2022-12-16T02:09:24;31.58;;;19.45;;
52322;SDS011;38263;52.920;6.238;2022-12-16T02:19:59;35.58;;;18.58;;
52322;SDS011;38263;52.920;6.238;2022-12-16T02:22:46;32.65;;;19.58;;
52322;SDS011;38263;52.920;6.238;2022-12-16T02:30:50;34.15;;;18.00;;
52322;SDS011;38263;52.920;6.238;2022-12-16T02:38:59;30.08;;;18.00;;
52322;SDS011;38263;52.920;6.238;2022-12-16T02:41:58;29.30;;;17.10;;
52322;SDS011;38263;52.920;6.238;2022-12-16T02:44:33;27.45;;;16.52;;
52322;SDS011;38263;52.920;6.238;2022-12-16T02:47:06;32.08;;;17.35;;
52322;SDS011;38263;52.920;6.238;2022-12-16T02:51:58;35.00;;;19.13;;
52322;SDS011;38263;52.920;6.238;2022-12-16T02:54:25;31.10;;;17.70;;
52322;SDS011;38263;52.920;6.238;2022-12-16T02:57:01;24.33;;;15.63;;
52322;SDS011;38263;52.920;6.238;2022-12-16T03:00:23;26.42;;;16.27;;
52322;SDS011;38263;52.920;6.238;2022-12-16T03:02:56;25.38;;;16.02;;
52322;SDS011;38263;52.920;6.238;2022-12-16T03:05:38;27.27;;;15.35;;
52322;SDS011;38263;52.920;6.238;2022-12-16T03:08:23;23.20;;;14.38;;
52322;SDS011;38263;52.920;6.238;2022-12-16T03:10:58;25.80;;;14.35;;
52322;SDS011;38263;52.920;6.238;2022-12-16T03:13:26;22.85;;;13.98;;
52322;SDS011;38263;52.920;6.238;2022-12-16T03:15:57;26.88;;;15.35;;
52322;SDS011;38263;52.920;6.238;2022-12-16T03:18:25;22.40;;;12.98;;
52322;SDS011;38263;52.920;6.238;2022-12-16T03:20:56;22.92;;;14.57;;
52322;SDS011;38263;52.920;6.238;2022-12-16T03:23:48;24.30;;;13.63;;
52322;SDS011;38263;52.920;6.238;2022-12-16T03:26:50;23.35;;;12.65;;
52322;SDS011;38263;52.920;6.238;2022-12-16T03:29:10;20.45;;;11.32;;
52322;SDS011;38263;52.920;6.238;2022-12-16T03:34:42;19.55;;;11.88;;
52322;SDS011;38263;52.920;6.238;2022-12-16T03:37:10;22.27;;;11.93;;
52322;SDS011;38263;52.920;6.238;2022-12-16T03:39:39;19.00;;;11.45;;
52322;SDS011;38263;52.920;6.238;2022-12-16T03:42:07;18.33;;;12.27;;
52322;SDS011;38263;52.920;6.238;2022-12-16T03:44:34;19.42;;;11.55;;
52322;SDS011;38263;52.920;6.238;2022-12-16T03:47:01;28.13;;;12.38;;
52322;SDS011;38263;52.920;6.238;2022-12-16T03:49:26;20.95;;;12.90;;
52322;SDS011;38263;52.920;6.238;2022-12-16T03:51:53;21.33;;;12.63;;
52322;SDS011;38263;52.920;6.238;2022-12-16T03:54:19;21.83;;;13.68;;
52322;SDS011;38263;52.920;6.238;2022-12-16T03:56:46;20.02;;;12.18;;
52322;SDS011;38263;52.920;6.238;2022-12-16T03:59:11;22.65;;;12.82;;
52322;SDS011;38263;52.920;6.238;2022-12-16T04:01:38;20.88;;;12.45;;
52322;SDS011;38263;52.920;6.238;2022-12-16T04:04:04;21.17;;;12.35;;
52322;SDS011;38263;52.920;6.238;2022-12-16T04:06:30;17.52;;;11.00;;
52322;SDS011;38263;52.920;6.238;2022-12-16T04:08:56;22.77;;;12.32;;
52322;SDS011;38263;52.920;6.238;2022-12-16T04:11:22;21.88;;;12.05;;
52322;SDS011;38263;52.920;6.238;2022-12-16T04:14:07;16.65;;;10.30;;
52322;SDS011;38263;52.920;6.238;2022-12-16T04:16:52;17.02;;;11.20;;
52322;SDS011;38263;52.920;6.238;2022-12-16T04:19:36;16.57;;;10.93;;
52322;SDS011;38263;52.920;6.238;2022-12-16T04:22:22;20.30;;;10.80;;
52322;SDS011;38263;52.920;6.238;2022-12-16T04:25:17;14.88;;;10.25;;
52322;SDS011;38263;52.920;6.238;2022-12-16T04:27:45;17.85;;;10.02;;
52322;SDS011;38263;52.920;6.238;2022-12-16T04:30:12;13.77;;;8.15;;
52322;SDS011;38263;52.920;6.238;2022-12-16T04:32:52;14.18;;;8.27;;
52322;SDS011;38263;52.920;6.238;2022-12-16T04:35:42;12.65;;;7.30;;
52322;SDS011;38263;52.920;6.238;2022-12-16T04:38:27;10.45;;;7.15;;
52322;SDS011;38263;52.920;6.238;2022-12-16T04:41:12;16.15;;;7.90;;
52322;SDS011;38263;52.920;6.238;2022-12-16T04:43:57;9.93;;;5.47;;
52322;SDS011;38263;52.920;6.238;2022-12-16T04:46:41;12.07;;;7.35;;
52322;SDS011;38263;52.920;6.238;2022-12-16T04:49:26;11.50;;;6.78;;
52322;SDS011;38263;52.920;6.238;2022-12-16T04:52:10;10.67;;;6.37;;
52322;SDS011;38263;52.920;6.238;2022-12-16T04:54:55;10.18;;;6.78;;
52322;SDS011;38263;52.920;6.238;2022-12-16T04:57:42;12.57;;;6.40;;
52322;SDS011;38263;52.920;6.238;2022-12-16T05:00:27;12.10;;;6.35;;
52322;SDS011;38263;52.920;6.238;2022-12-16T05:03:12;13.27;;;7.33;;
52322;SDS011;38263;52.920;6.238;2022-12-16T05:05:57;11.37;;;6.37;;
52322;SDS011;38263;52.920;6.238;2022-12-16T05:08:41;14.00;;;7.07;;
52322;SDS011;38263;52.920;6.238;2022-12-16T05:11:25;12.23;;;6.28;;
52322;SDS011;38263;52.920;6.238;2022-12-16T05:14:10;13.80;;;6.57;;
52322;SDS011;38263;52.920;6.238;2022-12-16T05:16:54;14.38;;;7.30;;
52322;SDS011;38263;52.920;6.238;2022-12-16T05:19:39;13.23;;;6.63;;
52322;SDS011;38263;52.920;6.238;2022-12-16T05:22:24;14.80;;;6.50;;
52322;SDS011;38263;52.920;6.238;2022-12-16T05:25:09;14.80;;;6.80;;
52322;SDS011;38263;52.920;6.238;2022-12-16T05:27:54;11.13;;;6.07;;
52322;SDS011;38263;52.920;6.238;2022-12-16T05:30:38;13.38;;;6.50;;
52322;SDS011;38263;52.920;6.238;2022-12-16T05:33:23;12.45;;;6.90;;
52322;SDS011;38263;52.920;6.238;2022-12-16T05:36:08;14.23;;;7.07;;
52322;SDS011;38263;52.920;6.238;2022-12-16T05:38:53;14.00;;;7.65;;
52322;SDS011;38263;52.920;6.238;2022-12-16T05:41:38;11.18;;;6.80;;
52322;SDS011;38263;52.920;6.238;2022-12-16T05:44:22;14.73;;;7.25;;
52322;SDS011;38263;52.920;6.238;2022-12-16T05:47:08;12.38;;;6.95;;
52322;SDS011;38263;52.920;6.238;2022-12-16T05:49:52;14.50;;;7.32;;
52322;SDS011;38263;52.920;6.238;2022-12-16T05:52:37;15.25;;;7.93;;
52322;SDS011;38263;52.920;6.238;2022-12-16T05:55:22;16.95;;;7.45;;
52322;SDS011;38263;52.920;6.238;2022-12-16T05:58:07;15.20;;;8.82;;
52322;SDS011;38263;52.920;6.238;2022-12-16T06:00:51;17.93;;;8.77;;
52322;SDS011;38263;52.920;6.238;2022-12-16T06:03:36;16.05;;;8.98;;
52322;SDS011;38263;52.920;6.238;2022-12-16T06:06:21;18.98;;;9.85;;
52322;SDS011;38263;52.920;6.238;2022-12-16T06:09:05;21.50;;;9.90;;
52322;SDS011;38263;52.920;6.238;2022-12-16T06:11:50;14.85;;;8.73;;
52322;SDS011;38263;52.920;6.238;2022-12-16T06:14:35;15.93;;;9.77;;
52322;SDS011;38263;52.920;6.238;2022-12-16T06:17:20;19.35;;;10.32;;
52322;SDS011;38263;52.920;6.238;2022-12-16T06:20:04;19.15;;;10.25;;
52322;SDS011;38263;52.920;6.238;2022-12-16T06:22:49;23.50;;;11.27;;
52322;SDS011;38263;52.920;6.238;2022-12-16T06:25:35;16.25;;;10.55;;
52322;SDS011;38263;52.920;6.238;2022-12-16T06:28:20;18.00;;;11.13;;
52322;SDS011;38263;52.920;6.238;2022-12-16T06:31:05;21.93;;;12.97;;
52322;SDS011;38263;52.920;6.238;2022-12-16T06:33:49;21.93;;;13.33;;
52322;SDS011;38263;52.920;6.238;2022-12-16T06:36:34;32.40;;;16.10;;
52322;SDS011;38263;52.920;6.238;2022-12-16T06:39:18;29.52;;;17.23;;
52322;SDS011;38263;52.920;6.238;2022-12-16T06:42:03;34.40;;;19.00;;
52322;SDS011;38263;52.920;6.238;2022-12-16T06:44:48;36.30;;;20.05;;
52322;SDS011;38263;52.920;6.238;2022-12-16T06:47:33;42.58;;;21.55;;
52322;SDS011;38263;52.920;6.238;2022-12-16T06:50:17;36.92;;;20.88;;
52322;SDS011;38263;52.920;6.238;2022-12-16T06:53:02;41.10;;;23.50;;
52322;SDS011;38263;52.920;6.238;2022-12-16T06:55:47;42.70;;;22.33;;
52322;SDS011;38263;52.920;6.238;2022-12-16T06:58:31;43.63;;;23.80;;
52322;SDS011;38263;52.920;6.238;2022-12-16T07:01:16;42.53;;;22.85;;
52322;SDS011;38263;52.920;6.238;2022-12-16T07:04:01;42.70;;;22.75;;
52322;SDS011;38263;52.920;6.238;2022-12-16T07:06:46;34.55;;;17.98;;
52322;SDS011;38263;52.920;6.238;2022-12-16T07:09:30;40.03;;;22.88;;
52322;SDS011;38263;52.920;6.238;2022-12-16T07:12:15;44.55;;;24.05;;
52322;SDS011;38263;52.920;6.238;2022-12-16T07:15:00;39.63;;;21.93;;
52322;SDS011;38263;52.920;6.238;2022-12-16T07:17:44;44.53;;;23.37;;
52322;SDS011;38263;52.920;6.238;2022-12-16T07:20:29;44.67;;;23.77;;
52322;SDS011;38263;52.920;6.238;2022-12-16T07:23:13;44.93;;;23.07;;
52322;SDS011;38263;52.920;6.238;2022-12-16T07:25:58;44.80;;;23.30;;
52322;SDS011;38263;52.920;6.238;2022-12-16T07:28:42;42.30;;;22.55;;
52322;SDS011;38263;52.920;6.238;2022-12-16T07:31:27;44.47;;;22.65;;
52322;SDS011;38263;52.920;6.238;2022-12-16T07:34:12;44.70;;;24.35;;
52322;SDS011;38263;52.920;6.238;2022-12-16T07:36:56;44.07;;;25.57;;
52322;SDS011;38263;52.920;6.238;2022-12-16T07:39:41;44.53;;;26.08;;
52322;SDS011;38263;52.920;6.238;2022-12-16T07:42:26;49.83;;;25.85;;
52322;SDS011;38263;52.920;6.238;2022-12-16T07:45:11;45.35;;;26.00;;
52322;SDS011;38263;52.920;6.238;2022-12-16T07:47:55;53.30;;;26.67;;
52322;SDS011;38263;52.920;6.238;2022-12-16T07:50:40;53.53;;;27.80;;
52322;SDS011;38263;52.920;6.238;2022-12-16T07:53:44;55.05;;;29.65;;
52322;SDS011;38263;52.920;6.238;2022-12-16T07:56:29;54.30;;;28.92;;
52322;SDS011;38263;52.920;6.238;2022-12-16T07:59:13;53.90;;;28.08;;
52322;SDS011;38263;52.920;6.238;2022-12-16T08:01:58;64.43;;;32.03;;
52322;SDS011;38263;52.920;6.238;2022-12-16T08:04:42;380.88;;;144.50;;
52322;SDS011;38263;52.920;6.238;2022-12-16T08:07:27;76.37;;;36.57;;
52322;SDS011;38263;52.920;6.238;2022-12-16T08:10:12;56.25;;;30.48;;
52322;SDS011;38263;52.920;6.238;2022-12-16T08:13:03;52.50;;;29.15;;
52322;SDS011;38263;52.920;6.238;2022-12-16T08:15:48;50.50;;;27.70;;
52322;SDS011;38263;52.920;6.238;2022-12-16T08:18:33;56.67;;;28.73;;
52322;SDS011;38263;52.920;6.238;2022-12-16T08:21:18;50.85;;;27.20;;
52322;SDS011;38263;52.920;6.238;2022-12-16T08:24:02;48.57;;;26.87;;
52322;SDS011;38263;52.920;6.238;2022-12-16T08:26:47;48.40;;;27.05;;
52322;SDS011;38263;52.920;6.238;2022-12-16T08:29:31;53.40;;;28.55;;
52322;SDS011;38263;52.920;6.238;2022-12-16T08:32:15;48.20;;;27.45;;
52322;SDS011;38263;52.920;6.238;2022-12-16T08:35:00;50.30;;;27.13;;
52322;SDS011;38263;52.920;6.238;2022-12-16T08:37:45;47.23;;;26.73;;
52322;SDS011;38263;52.920;6.238;2022-12-16T08:40:30;53.38;;;27.48;;
52322;SDS011;38263;52.920;6.238;2022-12-16T08:43:15;49.38;;;26.17;;
52322;SDS011;38263;52.920;6.238;2022-12-16T08:46:00;52.38;;;28.20;;
52322;SDS011;38263;52.920;6.238;2022-12-16T08:48:45;51.28;;;27.35;;
52322;SDS011;38263;52.920;6.238;2022-12-16T08:51:29;50.35;;;27.48;;
52322;SDS011;38263;52.920;6.238;2022-12-16T08:54:14;51.25;;;26.50;;
52322;SDS011;38263;52.920;6.238;2022-12-16T08:56:58;47.40;;;25.48;;
52322;SDS011;38263;52.920;6.238;2022-12-16T08:59:43;43.35;;;25.02;;
52322;SDS011;38263;52.920;6.238;2022-12-16T09:02:27;42.80;;;24.85;;
52322;SDS011;38263;52.920;6.238;2022-12-16T09:05:12;46.97;;;26.67;;
52322;SDS011;38263;52.920;6.238;2022-12-16T09:08:00;46.55;;;26.30;;
52322;SDS011;38263;52.920;6.238;2022-12-16T09:10:45;50.03;;;25.80;;
52322;SDS011;38263;52.920;6.238;2022-12-16T09:13:30;52.13;;;26.57;;
52322;SDS011;38263;52.920;6.238;2022-12-16T09:16:14;49.43;;;27.13;;
52322;SDS011;38263;52.920;6.238;2022-12-16T09:18:59;49.92;;;27.33;;
52322;SDS011;38263;52.920;6.238;2022-12-16T09:21:44;49.50;;;27.60;;
52322;SDS011;38263;52.920;6.238;2022-12-16T09:24:28;46.08;;;24.70;;
52322;SDS011;38263;52.920;6.238;2022-12-16T09:27:13;50.00;;;27.07;;
52322;SDS011;38263;52.920;6.238;2022-12-16T09:29:58;49.75;;;26.98;;
52322;SDS011;38263;52.920;6.238;2022-12-16T09:32:43;49.67;;;26.02;;
52322;SDS011;38263;52.920;6.238;2022-12-16T09:38:12;54.40;;;27.90;;
52322;SDS011;38263;52.920;6.238;2022-12-16T09:40:57;54.47;;;28.55;;
52322;SDS011;38263;52.920;6.238;2022-12-16T09:50:32;54.72;;;28.45;;
52322;SDS011;38263;52.920;6.238;2022-12-16T09:53:21;58.80;;;28.45;;
52322;SDS011;38263;52.920;6.238;2022-12-16T09:59:00;61.65;;;30.38;;
52322;SDS011;38263;52.920;6.238;2022-12-16T10:01:47;57.30;;;29.88;;
52322;SDS011;38263;52.920;6.238;2022-12-16T10:04:34;58.08;;;31.63;;
52322;SDS011;38263;52.920;6.238;2022-12-16T10:07:20;60.43;;;29.40;;
52322;SDS011;38263;52.920;6.238;2022-12-16T10:16:28;56.42;;;30.48;;
52322;SDS011;38263;52.920;6.238;2022-12-16T10:22:14;68.32;;;32.53;;
52322;SDS011;38263;52.920;6.238;2022-12-16T10:25:14;65.18;;;32.05;;
52322;SDS011;38263;52.920;6.238;2022-12-16T10:28:29;61.25;;;29.45;;
52322;SDS011;38263;52.920;6.238;2022-12-16T10:31:25;65.50;;;31.58;;
52322;SDS011;38263;52.920;6.238;2022-12-16T10:34:14;56.20;;;29.17;;
52322;SDS011;38263;52.920;6.238;2022-12-16T10:37:01;59.22;;;29.35;;
52322;SDS011;38263;52.920;6.238;2022-12-16T10:39:56;64.43;;;31.50;;
52322;SDS011;38263;52.920;6.238;2022-12-16T10:43:04;60.95;;;29.80;;
52322;SDS011;38263;52.920;6.238;2022-12-16T10:45:57;60.13;;;29.17;;
52322;SDS011;38263;52.920;6.238;2022-12-16T10:48:42;61.28;;;30.02;;
52322;SDS011;38263;52.920;6.238;2022-12-16T10:51:27;60.60;;;29.85;;
52322;SDS011;38263;52.920;6.238;2022-12-16T11:00:14;65.15;;;32.13;;
52322;SDS011;38263;52.920;6.238;2022-12-16T11:03:17;59.63;;;29.73;;
52322;SDS011;38263;52.920;6.238;2022-12-16T11:06:02;60.35;;;29.92;;
52322;SDS011;38263;52.920;6.238;2022-12-16T11:08:47;66.03;;;31.47;;
52322;SDS011;38263;52.920;6.238;2022-12-16T11:11:32;65.95;;;30.17;;
52322;SDS011;38263;52.920;6.238;2022-12-16T11:14:19;62.03;;;31.27;;
52322;SDS011;38263;52.920;6.238;2022-12-16T11:20:20;67.53;;;29.65;;
52322;SDS011;38263;52.920;6.238;2022-12-16T11:23:14;71.93;;;33.53;;
52322;SDS011;38263;52.920;6.238;2022-12-16T11:26:03;63.53;;;31.65;;
52322;SDS011;38263;52.920;6.238;2022-12-16T11:29:01;62.10;;;30.10;;
52322;SDS011;38263;52.920;6.238;2022-12-16T11:31:48;59.92;;;29.38;;
52322;SDS011;38263;52.920;6.238;2022-12-16T11:34:37;62.42;;;29.35;;
52322;SDS011;38263;52.920;6.238;2022-12-16T11:37:21;66.22;;;30.67;;
52322;SDS011;38263;52.920;6.238;2022-12-16T11:40:13;64.07;;;29.42;;
52322;SDS011;38263;52.920;6.238;2022-12-16T11:43:02;66.68;;;30.42;;
52322;SDS011;38263;52.920;6.238;2022-12-16T11:45:49;69.63;;;30.92;;
52322;SDS011;38263;52.920;6.238;2022-12-16T11:51:19;58.65;;;30.90;;
52322;SDS011;38263;52.920;6.238;2022-12-16T11:56:52;69.65;;;32.17;;
52322;SDS011;38263;52.920;6.238;2022-12-16T11:59:41;64.45;;;28.45;;
52322;SDS011;38263;52.920;6.238;2022-12-16T12:05:15;64.60;;;28.98;;
52322;SDS011;38263;52.920;6.238;2022-12-16T12:08:01;65.37;;;29.00;;
52322;SDS011;38263;52.920;6.238;2022-12-16T12:10:52;64.70;;;29.55;;
52322;SDS011;38263;52.920;6.238;2022-12-16T12:13:43;64.93;;;29.67;;
52322;SDS011;38263;52.920;6.238;2022-12-16T12:19:20;61.67;;;27.63;;
52322;SDS011;38263;52.920;6.238;2022-12-16T12:22:33;67.47;;;30.02;;
52322;SDS011;38263;52.920;6.238;2022-12-16T12:25:36;73.55;;;30.88;;
52322;SDS011;38263;52.920;6.238;2022-12-16T12:32:05;65.50;;;28.67;;
52322;SDS011;38263;52.920;6.238;2022-12-16T12:41:26;59.35;;;29.65;;
52322;SDS011;38263;52.920;6.238;2022-12-16T12:47:28;57.25;;;28.15;;
52322;SDS011;38263;52.920;6.238;2022-12-16T12:50:20;58.38;;;26.95;;
52322;SDS011;38263;52.920;6.238;2022-12-16T12:53:22;63.75;;;29.88;;
52322;SDS011;38263;52.920;6.238;2022-12-16T12:56:36;65.88;;;27.88;;
52322;SDS011;38263;52.920;6.238;2022-12-16T12:59:28;63.35;;;29.40;;
52322;SDS011;38263;52.920;6.238;2022-12-16T13:02:45;58.20;;;28.35;;
52322;SDS011;38263;52.920;6.238;2022-12-16T13:05:32;61.92;;;28.65;;
52322;SDS011;38263;52.920;6.238;2022-12-16T13:11:20;73.72;;;31.27;;
52322;SDS011;38263;52.920;6.238;2022-12-16T13:17:15;60.78;;;28.85;;
52322;SDS011;38263;52.920;6.238;2022-12-16T13:20:00;65.90;;;29.27;;
52322;SDS011;38263;52.920;6.238;2022-12-16T13:22:44;65.00;;;29.42;;
52322;SDS011;38263;52.920;6.238;2022-12-16T13:25:37;62.50;;;29.15;;
52322;SDS011;38263;52.920;6.238;2022-12-16T13:28:30;66.13;;;28.52;;
52322;SDS011;38263;52.920;6.238;2022-12-16T13:31:16;59.28;;;27.85;;
52322;SDS011;38263;52.920;6.238;2022-12-16T13:34:06;65.38;;;31.17;;
52322;SDS011;38263;52.920;6.238;2022-12-16T13:37:05;66.00;;;29.80;;
52322;SDS011;38263;52.920;6.238;2022-12-16T13:40:15;62.88;;;29.25;;
52322;SDS011;38263;52.920;6.238;2022-12-16T13:43:03;60.85;;;28.60;;
52322;SDS011;38263;52.920;6.238;2022-12-16T13:48:47;60.10;;;27.77;;
52322;SDS011;38263;52.920;6.238;2022-12-16T13:54:20;62.88;;;28.60;;
52322;SDS011;38263;52.920;6.238;2022-12-16T13:57:20;59.08;;;27.45;;
52322;SDS011;38263;52.920;6.238;2022-12-16T14:00:15;66.63;;;29.63;;
52322;SDS011;38263;52.920;6.238;2022-12-16T14:03:08;65.97;;;29.25;;
52322;SDS011;38263;52.920;6.238;2022-12-16T14:06:03;70.63;;;30.65;;
52322;SDS011;38263;52.920;6.238;2022-12-16T14:08:51;70.47;;;29.25;;
52322;SDS011;38263;52.920;6.238;2022-12-16T14:11:44;60.35;;;27.60;;
52322;SDS011;38263;52.920;6.238;2022-12-16T14:14:34;64.28;;;28.80;;
52322;SDS011;38263;52.920;6.238;2022-12-16T14:17:42;75.15;;;29.98;;
52322;SDS011;38263;52.920;6.238;2022-12-16T14:20:31;62.13;;;27.88;;
52322;SDS011;38263;52.920;6.238;2022-12-16T14:26:14;72.45;;;30.13;;
52322;SDS011;38263;52.920;6.238;2022-12-16T14:29:00;60.42;;;27.90;;
52322;SDS011;38263;52.920;6.238;2022-12-16T14:31:46;68.65;;;29.70;;
52322;SDS011;38263;52.920;6.238;2022-12-16T14:34:32;71.75;;;30.65;;
52322;SDS011;38263;52.920;6.238;2022-12-16T14:37:19;68.07;;;29.85;;
52322;SDS011;38263;52.920;6.238;2022-12-16T14:40:19;67.85;;;29.58;;
52322;SDS011;38263;52.920;6.238;2022-12-16T14:43:22;74.15;;;30.42;;
52322;SDS011;38263;52.920;6.238;2022-12-16T14:49:18;67.63;;;27.70;;
52322;SDS011;38263;52.920;6.238;2022-12-16T14:52:14;66.43;;;29.95;;
52322;SDS011;38263;52.920;6.238;2022-12-16T14:55:04;63.80;;;27.73;;
52322;SDS011;38263;52.920;6.238;2022-12-16T14:58:00;68.32;;;27.80;;
52322;SDS011;38263;52.920;6.238;2022-12-16T15:00:47;73.47;;;27.95;;
52322;SDS011;38263;52.920;6.238;2022-12-16T15:03:43;65.57;;;29.33;;
52322;SDS011;38263;52.920;6.238;2022-12-16T15:06:31;63.65;;;28.50;;
52322;SDS011;38263;52.920;6.238;2022-12-16T15:09:29;68.25;;;29.90;;
52322;SDS011;38263;52.920;6.238;2022-12-16T15:12:18;66.07;;;27.38;;
52322;SDS011;38263;52.920;6.238;2022-12-16T15:15:07;68.00;;;28.92;;
52322;SDS011;38263;52.920;6.238;2022-12-16T15:17:57;66.85;;;28.80;;
52322;SDS011;38263;52.920;6.238;2022-12-16T15:20:47;63.28;;;28.65;;
52322;SDS011;38263;52.920;6.238;2022-12-16T15:23:32;59.80;;;27.33;;
52322;SDS011;38263;52.920;6.238;2022-12-16T15:26:18;75.70;;;31.15;;
52322;SDS011;38263;52.920;6.238;2022-12-16T15:29:04;70.65;;;29.75;;
52322;SDS011;38263;52.920;6.238;2022-12-16T15:31:49;77.45;;;30.67;;
52322;SDS011;38263;52.920;6.238;2022-12-16T15:37:38;80.35;;;31.90;;
52322;SDS011;38263;52.920;6.238;2022-12-16T15:40:26;70.95;;;28.60;;
52322;SDS011;38263;52.920;6.238;2022-12-16T15:43:21;74.63;;;30.75;;
52322;SDS011;38263;52.920;6.238;2022-12-16T15:46:14;78.75;;;32.10;;
52322;SDS011;38263;52.920;6.238;2022-12-16T15:48:59;73.63;;;31.88;;
52322;SDS011;38263;52.920;6.238;2022-12-16T15:51:44;79.13;;;32.05;;
52322;SDS011;38263;52.920;6.238;2022-12-16T15:54:30;71.50;;;29.10;;
52322;SDS011;38263;52.920;6.238;2022-12-16T15:57:22;69.63;;;30.40;;
52322;SDS011;38263;52.920;6.238;2022-12-16T16:00:36;76.85;;;31.90;;
52322;SDS011;38263;52.920;6.238;2022-12-16T16:03:24;70.43;;;31.20;;
52322;SDS011;38263;52.920;6.238;2022-12-16T16:06:30;78.35;;;35.40;;
52322;SDS011;38263;52.920;6.238;2022-12-16T16:09:15;77.90;;;33.33;;
52322;SDS011;38263;52.920;6.238;2022-12-16T16:12:04;74.97;;;29.60;;
52322;SDS011;38263;52.920;6.238;2022-12-16T16:14:48;70.90;;;30.60;;
52322;SDS011;38263;52.920;6.238;2022-12-16T16:17:33;80.57;;;31.30;;
52322;SDS011;38263;52.920;6.238;2022-12-16T16:20:18;72.70;;;29.47;;
52322;SDS011;38263;52.920;6.238;2022-12-16T16:23:03;70.90;;;29.57;;
52322;SDS011;38263;52.920;6.238;2022-12-16T16:25:48;75.57;;;29.60;;
52322;SDS011;38263;52.920;6.238;2022-12-16T16:28:32;76.60;;;29.88;;
52322;SDS011;38263;52.920;6.238;2022-12-16T16:31:17;67.55;;;29.00;;
52322;SDS011;38263;52.920;6.238;2022-12-16T16:34:02;77.57;;;28.75;;
52322;SDS011;38263;52.920;6.238;2022-12-16T16:36:47;72.37;;;28.30;;
52322;SDS011;38263;52.920;6.238;2022-12-16T16:39:36;73.82;;;30.23;;
52322;SDS011;38263;52.920;6.238;2022-12-16T16:42:21;63.13;;;27.23;;
52322;SDS011;38263;52.920;6.238;2022-12-16T16:45:06;79.50;;;30.20;;
52322;SDS011;38263;52.920;6.238;2022-12-16T16:47:55;73.57;;;28.50;;
52322;SDS011;38263;52.920;6.238;2022-12-16T16:50:48;72.03;;;30.33;;
52322;SDS011;38263;52.920;6.238;2022-12-16T16:53:32;68.43;;;27.80;;
52322;SDS011;38263;52.920;6.238;2022-12-16T16:56:17;66.20;;;27.67;;
52322;SDS011;38263;52.920;6.238;2022-12-16T16:59:03;64.45;;;26.55;;
52322;SDS011;38263;52.920;6.238;2022-12-16T17:01:47;67.60;;;27.20;;
52322;SDS011;38263;52.920;6.238;2022-12-16T17:04:32;67.03;;;28.80;;
52322;SDS011;38263;52.920;6.238;2022-12-16T17:07:17;72.38;;;29.55;;
52322;SDS011;38263;52.920;6.238;2022-12-16T17:10:02;71.88;;;27.05;;
52322;SDS011;38263;52.920;6.238;2022-12-16T17:12:46;67.72;;;25.98;;
52322;SDS011;38263;52.920;6.238;2022-12-16T17:15:31;65.65;;;26.50;;
52322;SDS011;38263;52.920;6.238;2022-12-16T17:18:18;72.65;;;29.77;;
52322;SDS011;38263;52.920;6.238;2022-12-16T17:21:03;73.47;;;28.50;;
52322;SDS011;38263;52.920;6.238;2022-12-16T17:23:48;69.87;;;29.30;;
52322;SDS011;38263;52.920;6.238;2022-12-16T17:26:33;78.65;;;31.25;;
52322;SDS011;38263;52.920;6.238;2022-12-16T17:29:19;75.33;;;32.10;;
52322;SDS011;38263;52.920;6.238;2022-12-16T17:32:04;69.13;;;28.42;;
52322;SDS011;38263;52.920;6.238;2022-12-16T17:34:48;70.68;;;29.55;;
52322;SDS011;38263;52.920;6.238;2022-12-16T17:37:32;75.03;;;31.15;;
52322;SDS011;38263;52.920;6.238;2022-12-16T17:40:17;71.28;;;29.67;;